createdAt,value
2022-12-27T00:00:00.000Z,8.95
2022-12-27T00:15:00.000Z,8.86
2022-12-27T00:30:00.000Z,8.85
2022-12-27T00:45:00.000Z,8.78
2022-12-27T01:00:00.000Z,8.73
2022-12-27T01:15:00.000Z,8.52
2022-12-27T01:30:00.000Z,8.33
2022-12-27T01:45:00.000Z,8.11
2022-12-27T02:00:00.000Z,8.04
2022-12-27T02:15:00.000Z,8
2022-12-27T02:30:00.000Z,7.85
2022-12-27T02:45:00.000Z,7.89
2022-12-27T03:00:00.000Z,7.64
2022-12-27T03:15:00.000Z,7.39
2022-12-27T03:30:00.000Z,7.17
2022-12-27T03:45:00.000Z,7.11
2022-12-27T04:00:00.000Z,7.09
2022-12-27T04:15:00.000Z,7.09
2022-12-27T04:30:00.000Z,7.09
2022-12-27T04:45:00.000Z,6.92
2022-12-27T05:00:00.000Z,6.83
2022-12-27T05:15:00.000Z,6.61
2022-12-27T05:30:00.000Z,6.42
2022-12-27T05:45:00.000Z,6.33
2022-12-27T06:00:00.000Z,6.18
2022-12-27T06:15:00.000Z,6.22
2022-12-27T06:30:00.000Z,6.17
2022-12-27T06:45:00.000Z,6.13
2022-12-27T07:00:00.000Z,6.02
2022-12-27T07:15:00.000Z,5.96
2022-12-27T07:45:00.000Z,5.98
2022-12-27T07:45:00.000Z,5.99
2022-12-27T08:15:00.000Z,6.06
2022-12-27T08:15:00.000Z,6.21
2022-12-27T08:30:00.000Z,6.3
2022-12-27T08:45:00.000Z,6.29
2022-12-27T09:00:00.000Z,6.85
2022-12-27T09:15:00.000Z,7.44
2022-12-27T09:30:00.000Z,6.88
2022-12-27T09:45:00.000Z,6.62
2022-12-27T10:00:00.000Z,8.7
2022-12-27T10:15:00.000Z,8.68
2022-12-27T10:30:00.000Z,8.69
2022-12-27T10:45:00.000Z,8.39
2022-12-27T11:00:00.000Z,8.73
2022-12-27T11:15:00.000Z,9.07
2022-12-27T11:30:00.000Z,9.27
2022-12-27T11:45:00.000Z,9.5
2022-12-27T12:00:00.000Z,9.41
2022-12-27T12:15:00.000Z,9.76
2022-12-27T12:30:00.000Z,9.87
2022-12-27T12:45:00.000Z,8.77
2022-12-27T13:00:00.000Z,8.96
2022-12-27T13:15:00.000Z,9.1
2022-12-27T13:30:00.000Z,8.73
2022-12-27T13:45:00.000Z,8.42
2022-12-27T14:00:00.000Z,8.16
2022-12-27T14:15:00.000Z,8.05
2022-12-27T14:30:00.000Z,7.79
2022-12-27T14:45:00.000Z,7.53
2022-12-27T15:00:00.000Z,7.03
2022-12-27T15:15:00.000Z,6.71
2022-12-27T15:30:00.000Z,6.49
2022-12-27T15:45:00.000Z,6.07
2022-12-27T16:00:00.000Z,5.76
2022-12-27T16:15:00.000Z,5.73
2022-12-27T16:30:00.000Z,5.5
2022-12-27T16:45:00.000Z,5.32
2022-12-27T17:00:00.000Z,5.24
2022-12-27T17:15:00.000Z,4.86
2022-12-27T17:30:00.000Z,4.71
2022-12-27T17:45:00.000Z,4.87
2022-12-27T18:00:00.000Z,4.75
2022-12-27T18:15:00.000Z,4.85
2022-12-27T18:30:00.000Z,4.75
2022-12-27T18:45:00.000Z,4.87
2022-12-27T19:00:00.000Z,4.85
2022-12-27T19:15:00.000Z,4.88
2022-12-27T19:30:00.000Z,4.92
2022-12-27T19:45:00.000Z,4.83
2022-12-27T20:00:00.000Z,4.85
2022-12-27T20:15:00.000Z,4.93
2022-12-27T20:30:00.000Z,4.93
2022-12-27T20:45:00.000Z,4.93
2022-12-27T21:00:00.000Z,4.91
2022-12-27T21:15:00.000Z,4.85
2022-12-27T21:30:00.000Z,4.84
2022-12-27T21:45:00.000Z,4.7
2022-12-27T22:00:00.000Z,4.56
2022-12-27T22:15:00.000Z,4.44
2022-12-27T22:30:00.000Z,4.36
2022-12-27T22:45:00.000Z,4.14
2022-12-27T23:00:00.000Z,3.87
2022-12-27T23:15:00.000Z,3.63
2022-12-27T23:30:00.000Z,3.43
2022-12-27T23:45:00.000Z,3.02
